Time;durP1;ratioP1;P1;durP2;ratioP2;P2;SDS_P1;SDS_P2;PMS_P1;PMS_P2;Temp;Humidity;BMP_temperature;BMP_pressure;BME280_temperature;BME280_humidity;BME280_pressure;Samples;Min_cycle;Max_cycle;Signal;HPM_P1;HPM_P2
2024/02/14 00:00:13;;;;;;;1999.90;999.90;;;10.10;63.40;;;;;;4954326;28;20409;-72
2024/02/14 00:02:40;;;;;;;1999.90;999.90;;;10.00;89.90;;;;;;4954442;28;20411;-71
2024/02/14 00:05:07;;;;;;;1999.90;999.90;;;10.00;66.60;;;;;;4954716;28;20414;-72
2024/02/14 00:07:32;;;;;;;1999.90;999.90;;;10.10;66.20;;;;;;4954676;28;20418;-72
2024/02/14 00:09:58;;;;;;;1999.90;999.90;;;10.10;68.90;;;;;;4954140;28;20425;-71
2024/02/14 00:12:24;;;;;;;1999.90;999.90;;;10.20;70.00;;;;;;4954344;28;20197;-71
2024/02/14 00:14:50;;;;;;;1999.90;999.90;;;10.10;69.60;;;;;;4954533;28;20209;-71
2024/02/14 00:17:16;;;;;;;1999.90;999.90;;;10.10;70.50;;;;;;4954440;28;20782;-72
2024/02/14 00:19:41;;;;;;;1999.90;999.90;;;10.10;70.70;;;;;;4954033;28;20400;-72
2024/02/14 00:22:07;;;;;;;1999.90;999.90;;;10.00;73.00;;;;;;4954309;28;20230;-72
2024/02/14 00:24:33;;;;;;;1999.90;999.90;;;10.10;75.90;;;;;;4954226;28;20664;-72
2024/02/14 00:27:00;;;;;;;1999.90;999.90;;;10.00;78.00;;;;;;4954313;28;20185;-72
2024/02/14 00:29:26;;;;;;;1999.90;999.90;;;9.90;81.00;;;;;;4953785;28;20433;-72
2024/02/14 00:31:51;;;;;;;1999.90;999.90;;;10.00;83.30;;;;;;4954082;28;20784;-72
2024/02/14 00:34:17;;;;;;;1999.90;999.90;;;10.00;83.10;;;;;;4953960;28;20547;-72
2024/02/14 00:36:42;;;;;;;1999.90;999.90;;;10.10;82.40;;;;;;4954421;28;20195;-71
2024/02/14 00:39:09;;;;;;;1999.90;999.90;;;10.10;81.30;;;;;;4954094;28;20197;-72
2024/02/14 00:41:35;;;;;;;1999.90;999.90;;;10.20;79.40;;;;;;4954269;28;20608;-71
2024/02/14 00:44:01;;;;;;;1999.90;999.90;;;10.20;80.40;;;;;;4953889;28;20549;-72
2024/02/14 00:46:27;;;;;;;1999.90;999.90;;;10.20;82.90;;;;;;4953818;28;20717;-72
2024/02/14 00:48:54;;;;;;;1999.90;999.90;;;10.10;84.80;;;;;;4954129;28;20421;-72
2024/02/14 00:51:20;;;;;;;1999.90;999.90;;;10.50;86.40;;;;;;4954204;28;20412;-72
2024/02/14 00:53:46;;;;;;;1999.90;999.90;;;10.30;86.00;;;;;;4953752;28;20450;-71
2024/02/14 00:56:12;;;;;;;1999.90;999.90;;;10.30;84.60;;;;;;4954009;28;20420;-71
2024/02/14 00:58:37;;;;;;;1999.90;999.90;;;10.40;87.80;;;;;;4954013;28;20661;-71
2024/02/14 01:01:03;;;;;;;1999.90;999.90;;;10.50;86.10;;;;;;4953593;28;20171;-71
2024/02/14 01:03:29;;;;;;;1999.90;999.90;;;10.50;86.90;;;;;;4954267;28;20261;-71
2024/02/14 01:05:55;;;;;;;1999.90;999.90;;;10.70;85.40;;;;;;4955019;28;20414;-71
2024/02/14 01:08:20;;;;;;;1999.90;999.90;;;10.70;84.00;;;;;;4955435;28;20214;-72
2024/02/14 01:10:46;;;;;;;1999.90;999.90;;;10.70;81.80;;;;;;4953775;28;20647;-71
2024/02/14 01:13:12;;;;;;;1999.90;999.90;;;10.70;81.90;;;;;;4955323;28;20201;-72
2024/02/14 01:15:38;;;;;;;1999.90;999.90;;;10.70;84.20;;;;;;4954863;28;20811;-71
2024/02/14 01:18:04;;;;;;;1999.90;999.90;;;10.70;83.80;;;;;;4955137;28;20410;-72
2024/02/14 01:20:29;;;;;;;1999.90;999.90;;;10.70;84.10;;;;;;4954251;28;20651;-72
2024/02/14 01:22:55;;;;;;;1999.90;999.90;;;10.70;99.80;;;;;;4954122;28;20262;-72
2024/02/14 01:25:21;;;;;;;1999.90;999.90;;;10.70;87.10;;;;;;4954217;28;20225;-73
2024/02/14 01:27:47;;;;;;;1999.90;999.90;;;10.70;99.90;;;;;;4954045;28;20194;-72
2024/02/14 01:30:14;;;;;;;1999.90;999.90;;;10.70;89.90;;;;;;4953604;28;20168;-72
2024/02/14 01:32:40;;;;;;;1999.90;999.90;;;10.70;99.90;;;;;;4953902;28;20421;-72
2024/02/14 01:35:06;;;;;;;1999.90;999.90;;;10.70;90.00;;;;;;4953931;28;20461;-73
2024/02/14 01:37:32;;;;;;;1999.90;999.90;;;10.70;90.40;;;;;;4953775;28;20166;-72
2024/02/14 01:39:58;;;;;;;1999.90;999.90;;;10.70;91.20;;;;;;4954980;28;20936;-73
2024/02/14 01:42:23;;;;;;;1999.90;999.90;;;10.70;91.80;;;;;;4957237;28;20421;-72
2024/02/14 01:44:49;;;;;;;1999.90;999.90;;;10.80;92.10;;;;;;4957501;28;20194;-73
2024/02/14 01:47:15;;;;;;;1999.90;999.90;;;10.80;92.90;;;;;;4957962;28;20208;-71
2024/02/14 01:49:44;;;;;;;1999.90;999.90;;;10.70;93.10;;;;;;4957772;28;20517;-71
2024/02/14 01:52:10;;;;;;;1999.90;999.90;;;10.70;93.80;;;;;;4957545;28;20232;-70
2024/02/14 01:54:36;;;;;;;1999.90;999.90;;;10.60;94.80;;;;;;4956873;28;20997;-71
2024/02/14 01:57:03;;;;;;;1999.90;999.90;;;10.60;95.30;;;;;;4956827;28;20485;-71
2024/02/14 01:59:29;;;;;;;1999.90;999.90;;;10.60;96.70;;;;;;4956528;28;20401;-71
2024/02/14 02:01:55;;;;;;;1999.90;999.90;;;10.60;96.70;;;;;;4956964;28;20426;-71
2024/02/14 02:04:21;;;;;;;1999.90;999.90;;;10.60;97.30;;;;;;4956617;28;20499;-71
2024/02/14 02:06:47;;;;;;;1999.90;999.90;;;10.70;97.70;;;;;;4956714;28;20410;-72
2024/02/14 02:09:12;;;;;;;1999.90;999.90;;;10.70;97.30;;;;;;4956437;28;20414;-72
2024/02/14 02:11:56;;;;;;;1999.90;999.90;;;10.70;96.90;;;;;;4956555;28;20237;-71
2024/02/14 02:14:22;;;;;;;1999.90;999.90;;;10.70;97.40;;;;;;4956570;28;20317;-71
2024/02/14 02:16:48;;;;;;;1999.90;999.90;;;10.70;97.20;;;;;;4956665;28;20491;-71
2024/02/14 02:19:15;;;;;;;1999.90;999.90;;;10.70;98.00;;;;;;4956252;28;20166;-71
2024/02/14 02:21:46;;;;;;;1999.90;999.90;;;10.90;97.90;;;;;;4956406;28;20501;-71
2024/02/14 02:24:11;;;;;;;1999.90;999.90;;;10.70;97.60;;;;;;4956268;28;20438;-71
2024/02/14 02:26:37;;;;;;;1999.90;999.90;;;10.80;98.50;;;;;;4956274;28;20411;-71
2024/02/14 02:29:04;;;;;;;1999.90;999.90;;;10.70;99.00;;;;;;4956054;28;20414;-71
2024/02/14 02:31:30;;;;;;;1999.90;999.90;;;10.70;99.00;;;;;;4956426;28;20183;-71
2024/02/14 02:33:56;;;;;;;1999.90;999.90;;;10.70;99.90;;;;;;4956010;28;20595;-71
2024/02/14 02:36:24;;;;;;;1999.90;999.90;;;10.70;99.90;;;;;;4956167;28;20406;-71
2024/02/14 02:38:50;;;;;;;1999.90;999.90;;;10.60;99.90;;;;;;4956056;28;20176;-72
2024/02/14 02:41:16;;;;;;;1999.90;999.90;;;10.60;99.90;;;;;;4955772;28;20418;-70
2024/02/14 02:43:41;;;;;;;1999.90;999.90;;;10.60;99.90;;;;;;4955994;28;20453;-70
2024/02/14 02:46:09;;;;;;;1999.90;999.90;;;10.80;99.90;;;;;;4956113;28;20779;-70
2024/02/14 02:48:35;;;;;;;1999.90;999.90;;;10.60;99.90;;;;;;4955976;28;20580;-70
2024/02/14 02:51:01;;;;;;;1999.90;999.90;;;10.50;99.90;;;;;;4954701;28;20941;-70
2024/02/14 02:53:27;;;;;;;1999.90;999.90;;;10.50;99.90;;;;;;4955516;28;20430;-71
2024/02/14 02:55:54;;;;;;;1999.90;999.90;;;10.50;99.90;;;;;;4955752;28;20176;-71
2024/02/14 02:58:21;;;;;;;1999.90;999.90;;;10.60;99.90;;;;;;4955917;28;20650;-71
2024/02/14 03:00:49;;;;;;;1999.90;999.90;;;10.70;99.90;;;;;;4955555;28;20840;-70
2024/02/14 03:03:15;;;;;;;1999.90;999.90;;;10.70;99.90;;;;;;4955532;28;20429;-72
2024/02/14 03:05:44;;;;;;;1999.90;999.90;;;10.60;99.90;;;;;;4955581;28;20410;-72
2024/02/14 03:08:15;;;;;;;1999.90;999.90;;;10.60;99.90;;;;;;4955448;28;20457;-72
2024/02/14 03:10:41;;;;;;;1999.90;999.90;;;10.60;99.90;;;;;;4955425;28;20449;-72
2024/02/14 03:13:10;;;;;;;1999.90;999.90;;;10.70;99.90;;;;;;4955396;28;20848;-70
2024/02/14 03:15:36;;;;;;;1999.90;999.90;;;10.60;99.90;;;;;;4955419;28;20458;-72
2024/02/14 03:18:01;;;;;;;1999.90;999.90;;;10.60;99.90;;;;;;4955414;28;20441;-71
2024/02/14 03:20:29;;;;;;;1999.90;999.90;;;10.70;99.90;;;;;;4955013;28;20648;-71
2024/02/14 03:22:54;;;;;;;1999.90;999.90;;;10.80;99.90;;;;;;4955429;28;20442;-72
2024/02/14 03:25:20;;;;;;;1999.90;999.90;;;10.60;99.90;;;;;;4955190;28;20848;-71
2024/02/14 03:27:49;;;;;;;1999.90;999.90;;;10.70;99.90;;;;;;4955199;28;20174;-71
2024/02/14 03:30:16;;;;;;;1999.90;999.90;;;10.60;99.90;;;;;;4954887;28;21028;-71
2024/02/14 03:32:42;;;;;;;1999.90;999.90;;;10.60;1.00;;;;;;4955069;28;20418;-71
2024/02/14 03:35:10;;;;;;;1999.90;999.90;;;10.70;1.00;;;;;;4954938;28;20448;-71
2024/02/14 03:37:37;;;;;;;1999.90;999.90;;;10.60;99.90;;;;;;4954968;28;20412;-71
2024/02/14 03:40:04;;;;;;;1999.90;999.90;;;10.70;99.90;;;;;;4954921;28;20399;-72
2024/02/14 03:42:30;;;;;;;1999.90;999.90;;;10.60;1.00;;;;;;4954941;28;20431;-71
2024/02/14 03:45:02;;;;;;;1999.90;999.90;;;10.50;1.00;;;;;;4954823;28;20942;-71
2024/02/14 03:47:29;;;;;;;1999.90;999.90;;;10.70;13.10;;;;;;4954884;28;20190;-71
2024/02/14 03:49:54;;;;;;;1999.90;999.90;;;10.60;1.00;;;;;;4954497;28;20423;-71
2024/02/14 03:52:22;;;;;;;1999.90;999.90;;;10.60;60.20;;;;;;4954662;28;20413;-71
2024/02/14 03:54:48;;;;;;;1999.90;999.90;;;10.50;35.80;;;;;;4954457;28;20709;-71
2024/02/14 03:57:13;;;;;;;1999.90;999.90;;;10.50;56.10;;;;;;4954692;28;20410;-72
2024/02/14 03:59:39;;;;;;;1999.90;999.90;;;10.50;50.20;;;;;;4954391;28;20413;-71
2024/02/14 04:02:09;;;;;;;1999.90;999.90;;;10.50;22.70;;;;;;4954315;28;20167;-71
2024/02/14 04:04:36;;;;;;;1999.90;999.90;;;10.50;99.90;;;;;;4954602;28;20424;-71
2024/02/14 04:07:02;;;;;;;1999.90;999.90;;;10.60;99.90;;;;;;4954449;28;20442;-72
2024/02/14 04:09:28;;;;;;;1999.90;999.90;;;10.50;99.90;;;;;;4954366;28;20823;-72
2024/02/14 04:11:54;;;;;;;1999.90;999.90;;;10.50;99.90;;;;;;4954430;28;20449;-72
2024/02/14 04:14:21;;;;;;;1999.90;999.90;;;10.60;99.90;;;;;;4954258;28;20207;-71
2024/02/14 04:16:46;;;;;;;1999.90;999.90;;;10.50;99.90;;;;;;4954269;28;20473;-71
2024/02/14 04:19:12;;;;;;;1999.90;999.90;;;10.60;99.90;;;;;;4954037;28;20404;-71
2024/02/14 04:21:38;;;;;;;1999.90;999.90;;;10.60;99.90;;;;;;4954319;28;20173;-71
2024/02/14 04:24:04;;;;;;;1999.90;999.90;;;10.70;99.90;;;;;;4954113;28;20430;-71
2024/02/14 04:26:30;;;;;;;1999.90;999.90;;;10.60;99.90;;;;;;4954232;28;20704;-70
2024/02/14 04:28:55;;;;;;;1999.90;999.90;;;10.70;99.90;;;;;;4953918;28;20562;-71
2024/02/14 04:31:21;;;;;;;1999.90;999.90;;;10.60;99.90;;;;;;4954106;28;20185;-71
2024/02/14 04:33:51;;;;;;;1999.90;999.90;;;10.60;99.90;;;;;;4953906;28;20213;-71
2024/02/14 04:36:19;;;;;;;1999.90;999.90;;;10.70;99.90;;;;;;4954320;28;20186;-72
2024/02/14 04:38:46;;;;;;;1999.90;999.90;;;10.70;99.90;;;;;;4954010;28;20437;-72
2024/02/14 04:41:12;;;;;;;1999.90;999.90;;;10.70;99.90;;;;;;4953784;28;20427;-72
2024/02/14 04:43:37;;;;;;;1999.90;999.90;;;10.80;99.90;;;;;;4953867;28;20457;-71
2024/02/14 04:46:06;;;;;;;1999.90;999.90;;;10.80;99.90;;;;;;4953894;28;20713;-71
2024/02/14 04:48:32;;;;;;;1999.90;999.90;;;10.80;99.90;;;;;;4954139;28;20187;-72
2024/02/14 04:50:58;;;;;;;1999.90;999.90;;;10.80;99.90;;;;;;4953911;28;20421;-72
2024/02/14 04:53:24;;;;;;;1999.90;999.90;;;10.80;99.90;;;;;;4953844;28;20981;-71
2024/02/14 04:55:50;;;;;;;1999.90;999.90;;;10.80;99.90;;;;;;4954015;28;20182;-72
2024/02/14 04:58:16;;;;;;;1999.90;999.90;;;10.80;99.90;;;;;;4954183;28;20842;-71
2024/02/14 05:00:41;;;;;;;1999.90;999.90;;;10.70;99.90;;;;;;4953551;28;20178;-71
2024/02/14 05:03:07;;;;;;;1999.90;999.90;;;10.80;99.90;;;;;;4953743;28;20183;-71
2024/02/14 05:05:36;;;;;;;1999.90;999.90;;;10.70;99.90;;;;;;4953753;28;20411;-71
2024/02/14 05:08:04;;;;;;;1999.90;999.90;;;10.70;99.90;;;;;;4953815;28;20179;-71
2024/02/14 05:10:33;;;;;;;1999.90;999.90;;;10.80;99.90;;;;;;4953541;28;20501;-71
2024/02/14 05:12:58;;;;;;;1999.90;999.90;;;10.80;99.90;;;;;;4953551;28;20421;-71
2024/02/14 05:15:24;;;;;;;1999.90;999.90;;;10.80;99.90;;;;;;4955626;28;20449;-70
2024/02/14 05:17:50;;;;;;;1999.90;999.90;;;10.80;99.90;;;;;;4957605;28;20175;-70
2024/02/14 05:20:16;;;;;;;1999.90;999.90;;;10.80;99.90;;;;;;4957247;28;20405;-71
2024/02/14 05:22:42;;;;;;;1999.90;999.90;;;10.70;99.90;;;;;;4957333;28;20185;-70
2024/02/14 05:25:09;;;;;;;1999.90;999.90;;;10.70;99.90;;;;;;4957372;28;20426;-71
2024/02/14 05:27:35;;;;;;;1999.90;999.90;;;10.70;99.90;;;;;;4957318;28;20197;-71
2024/02/14 05:30:05;;;;;;;1999.90;999.90;;;10.60;99.90;;;;;;4957358;28;20780;-70
2024/02/14 05:32:31;;;;;;;1999.90;999.90;;;10.60;99.90;;;;;;4957293;28;20421;-72
2024/02/14 05:34:57;;;;;;;1999.90;999.90;;;10.50;99.90;;;;;;4957095;28;20462;-71
2024/02/14 05:37:22;;;;;;;1999.90;999.90;;;10.50;99.90;;;;;;4957177;28;20777;-70
2024/02/14 05:39:48;;;;;;;1999.90;999.90;;;10.40;99.90;;;;;;4956942;28;20410;-70
2024/02/14 05:42:15;;;;;;;1999.90;999.90;;;10.40;99.90;;;;;;4956898;28;20655;-70
2024/02/14 05:44:42;;;;;;;1999.90;999.90;;;10.30;99.90;;;;;;4957164;28;20220;-71
2024/02/14 05:47:08;;;;;;;1999.90;999.90;;;10.30;99.90;;;;;;4957154;28;20420;-71
2024/02/14 05:49:34;;;;;;;1999.90;999.90;;;10.30;99.90;;;;;;4956859;28;20429;-70
2024/02/14 05:52:00;;;;;;;1999.90;999.90;;;10.30;99.90;;;;;;4957051;28;20426;-71
2024/02/14 05:54:25;;;;;;;1999.90;999.90;;;10.30;99.90;;;;;;4956774;28;20200;-72
2024/02/14 05:56:51;;;;;;;1999.90;999.90;;;10.30;99.90;;;;;;4956818;28;20188;-72
2024/02/14 05:59:16;;;;;;;1999.90;999.90;;;10.40;99.90;;;;;;4956626;28;20552;-72
2024/02/14 06:01:42;;;;;;;1999.90;999.90;;;10.40;99.90;;;;;;4956832;28;20214;-72
2024/02/14 06:04:07;;;;;;;1999.90;999.90;;;10.40;99.90;;;;;;4956667;28;20207;-72
2024/02/14 06:06:33;;;;;;;1999.90;999.90;;;10.50;99.90;;;;;;4956676;28;20207;-72
2024/02/14 06:08:58;;;;;;;1999.90;999.90;;;10.50;99.90;;;;;;4956430;28;20650;-72
2024/02/14 06:11:24;;;;;;;1999.90;999.90;;;10.50;99.90;;;;;;4956591;28;20379;-72
2024/02/14 06:13:50;;;;;;;1999.90;999.90;;;10.50;99.90;;;;;;4956369;28;20211;-72
2024/02/14 06:16:16;;;;;;;1999.90;999.90;;;10.50;99.90;;;;;;4956496;28;20178;-72
2024/02/14 06:18:42;;;;;;;1999.90;999.90;;;10.60;99.90;;;;;;4956684;28;20592;-72
2024/02/14 06:21:07;;;;;;;1999.90;999.90;;;10.60;99.90;;;;;;4956152;28;20417;-71
2024/02/14 06:23:34;;;;;;;1999.90;999.90;;;10.60;99.90;;;;;;4956320;28;20201;-72
2024/02/14 06:25:59;;;;;;;1999.90;999.90;;;10.70;99.90;;;;;;4956070;28;20172;-72
2024/02/14 06:28:25;;;;;;;1999.90;999.90;;;10.70;99.90;;;;;;4956311;28;21020;-72
2024/02/14 06:30:50;;;;;;;1999.90;999.90;;;10.70;99.90;;;;;;4956037;28;20222;-71
2024/02/14 06:33:16;;;;;;;1999.90;999.90;;;10.70;99.90;;;;;;4956103;28;20293;-70
2024/02/14 06:35:42;;;;;;;1999.90;999.90;;;10.80;99.90;;;;;;4956154;28;20217;-70
2024/02/14 06:38:07;;;;;;;1999.90;999.90;;;10.80;99.90;;;;;;4956123;28;20260;-69
2024/02/14 06:40:33;;;;;;;1999.90;999.90;;;10.70;99.90;;;;;;4956800;28;20174;-70
2024/02/14 06:43:02;;;;;;;1999.90;999.90;;;10.80;99.90;;;;;;4957283;28;20198;-69
2024/02/14 06:45:27;;;;;;;1999.90;999.90;;;10.70;99.90;;;;;;4957347;28;20265;-70
2024/02/14 06:47:54;;;;;;;1999.90;999.90;;;10.70;99.90;;;;;;4956333;28;20494;-71
2024/02/14 06:50:19;;;;;;;1999.90;999.90;;;10.70;99.90;;;;;;4955787;28;20666;-70
2024/02/14 06:52:45;;;;;;;1999.90;999.90;;;10.80;99.90;;;;;;4955834;28;20501;-70
2024/02/14 06:55:11;;;;;;;1999.90;999.90;;;10.80;99.90;;;;;;4955750;28;20693;-70
2024/02/14 06:57:36;;;;;;;1999.90;999.90;;;10.80;99.90;;;;;;4955975;28;20238;-70
2024/02/14 07:00:05;;;;;;;1999.90;999.90;;;10.80;99.90;;;;;;4956208;28;20206;-70
2024/02/14 07:02:31;;;;;;;1999.90;999.90;;;10.80;99.90;;;;;;4957267;28;20171;-69
2024/02/14 07:04:57;;;;;;;1999.90;999.90;;;10.90;99.90;;;;;;4955875;28;20803;-70
2024/02/14 07:07:22;;;;;;;1999.90;999.90;;;10.90;99.90;;;;;;4955566;28;20233;-69
2024/02/14 07:09:48;;;;;;;1999.90;999.90;;;10.90;99.90;;;;;;4955277;28;20175;-69
2024/02/14 07:12:13;;;;;;;1999.90;999.90;;;10.90;99.90;;;;;;4955693;28;20210;-69
2024/02/14 07:14:39;;;;;;;1999.90;999.90;;;11.00;99.90;;;;;;4955318;28;20261;-69
2024/02/14 07:17:05;;;;;;;1999.90;999.90;;;11.00;99.90;;;;;;4955378;28;20224;-70
2024/02/14 07:19:30;;;;;;;1999.90;999.90;;;11.00;99.90;;;;;;4955095;28;20253;-69
2024/02/14 07:21:56;;;;;;;1999.90;999.90;;;11.00;99.90;;;;;;4955366;28;20594;-69
2024/02/14 07:24:21;;;;;;;1999.90;999.90;;;10.90;99.90;;;;;;4955376;28;20202;-71
2024/02/14 07:26:47;;;;;;;1999.90;999.90;;;11.00;99.90;;;;;;4955904;28;20172;-70
2024/02/14 07:29:13;;;;;;;1999.90;999.90;;;11.10;99.90;;;;;;4955850;28;20178;-70
2024/02/14 07:31:38;;;;;;;1999.90;999.90;;;11.10;99.90;;;;;;4955300;28;20174;-70
2024/02/14 07:34:04;;;;;;;1999.90;999.90;;;11.10;99.90;;;;;;4955085;28;20210;-70
2024/02/14 07:36:31;;;;;;;1999.90;999.90;;;11.10;99.90;;;;;;4955537;28;20178;-70
2024/02/14 07:38:57;;;;;;;1999.90;999.90;;;11.10;99.90;;;;;;4955021;28;20193;-69
2024/02/14 07:41:22;;;;;;;1999.90;999.90;;;11.20;99.90;;;;;;4955709;28;20411;-70
2024/02/14 07:43:48;;;;;;;1999.90;999.90;;;11.20;99.90;;;;;;4955008;28;20297;-70
2024/02/14 07:46:22;;;;;;;1999.90;999.90;;;11.20;99.90;;;;;;4955041;28;20230;-70
2024/02/14 07:48:48;;;;;;;1999.90;999.90;;;11.20;99.90;;;;;;4954946;28;20282;-70
2024/02/14 07:51:14;;;;;;;1999.90;999.90;;;11.30;99.90;;;;;;4954544;28;20421;-70
2024/02/14 07:53:39;;;;;;;1999.90;999.90;;;11.30;99.90;;;;;;4954607;28;20434;-69
2024/02/14 07:56:05;;;;;;;1999.90;999.90;;;11.40;99.90;;;;;;4955521;28;20655;-71
2024/02/14 07:58:31;;;;;;;1999.90;999.90;;;11.40;99.90;;;;;;4955594;28;20170;-70
2024/02/14 08:00:56;;;;;;;1999.90;999.90;;;11.50;99.90;;;;;;4955454;28;20242;-70
2024/02/14 08:03:22;;;;;;;1999.90;999.90;;;11.50;99.90;;;;;;4954503;28;20197;-69
2024/02/14 08:05:48;;;;;;;1999.90;999.90;;;11.50;99.90;;;;;;4954559;28;20214;-69
2024/02/14 08:08:13;;;;;;;1999.90;999.90;;;11.60;99.90;;;;;;4954778;28;20231;-70
2024/02/14 08:10:39;;;;;;;1999.90;999.90;;;11.70;99.90;;;;;;4954072;28;20206;-69
2024/02/14 08:13:04;;;;;;;1999.90;999.90;;;11.70;99.90;;;;;;4954338;28;20283;-69
2024/02/14 08:15:30;;;;;;;1999.90;999.90;;;11.80;99.90;;;;;;4954278;28;20208;-70
2024/02/14 08:17:56;;;;;;;1999.90;999.90;;;11.80;99.90;;;;;;4954351;28;20178;-69
2024/02/14 08:20:23;;;;;;;1999.90;999.90;;;11.90;99.90;;;;;;4954617;28;20777;-70
2024/02/14 08:22:49;;;;;;;1999.90;999.90;;;12.00;99.90;;;;;;4954080;28;20175;-70
2024/02/14 08:25:15;;;;;;;1999.90;999.90;;;11.90;99.90;;;;;;4954115;28;20408;-70
2024/02/14 08:27:41;;;;;;;1999.90;999.90;;;12.00;99.90;;;;;;4954327;28;20183;-70
2024/02/14 08:30:08;;;;;;;1999.90;999.90;;;12.00;99.90;;;;;;4954025;28;20845;-70
2024/02/14 08:32:34;;;;;;;1999.90;999.90;;;12.00;99.90;;;;;;4954042;28;20195;-70
2024/02/14 08:35:00;;;;;;;1999.90;999.90;;;12.10;99.90;;;;;;4954490;28;20466;-70
2024/02/14 08:37:27;;;;;;;1999.90;999.90;;;12.10;99.90;;;;;;4954771;28;20419;-70
2024/02/14 08:39:53;;;;;;;1999.90;999.90;;;12.10;99.90;;;;;;4954618;28;20433;-69
2024/02/14 08:42:18;;;;;;;1999.90;999.90;;;12.20;99.90;;;;;;4954236;28;20431;-70
2024/02/14 08:44:44;;;;;;;1999.90;999.90;;;12.20;99.90;;;;;;4954394;28;20314;-70
2024/02/14 08:47:10;;;;;;;1999.90;999.90;;;12.30;99.90;;;;;;4954397;28;20550;-70
2024/02/14 08:49:36;;;;;;;1999.90;999.90;;;12.30;99.90;;;;;;4954277;28;20191;-70
2024/02/14 08:52:01;;;;;;;1999.90;999.90;;;12.40;99.90;;;;;;4954178;28;20427;-70
2024/02/14 08:54:28;;;;;;;1999.90;999.90;;;12.40;99.90;;;;;;4954212;28;20219;-69
2024/02/14 08:56:55;;;;;;;1999.90;999.90;;;12.50;99.90;;;;;;4954132;28;20183;-69
2024/02/14 08:59:21;;;;;;;1999.90;999.90;;;12.50;99.90;;;;;;4953650;28;20411;-69
2024/02/14 09:01:48;;;;;;;1999.90;999.90;;;12.50;99.90;;;;;;4953751;28;20826;-70
2024/02/14 09:04:13;;;;;;;1999.90;999.90;;;12.50;99.90;;;;;;4953681;28;20760;-70
2024/02/14 09:06:40;;;;;;;1999.90;999.90;;;12.50;99.90;;;;;;4953643;28;20443;-70
2024/02/14 09:09:06;;;;;;;1999.90;999.90;;;12.60;99.90;;;;;;4953704;28;20185;-69
2024/02/14 09:11:32;;;;;;;1999.90;999.90;;;12.70;99.90;;;;;;4953825;28;20419;-69
2024/02/14 09:14:04;;;;;;;1999.90;999.90;;;12.70;99.90;;;;;;4953534;28;20491;-69
2024/02/14 09:16:30;;;;;;;1999.90;999.90;;;12.70;99.90;;;;;;4953687;28;20179;-70
2024/02/14 09:18:56;;;;;;;1999.90;999.90;;;12.70;99.90;;;;;;4953691;28;20412;-69
2024/02/14 09:21:22;;;;;;;1999.90;999.90;;;12.70;99.90;;;;;;4953526;28;20441;-69
2024/02/14 09:23:48;;;;;;;1999.90;999.90;;;12.80;99.90;;;;;;4953462;28;20200;-70
2024/02/14 09:26:13;;;;;;;1999.90;999.90;;;12.90;99.90;;;;;;4953745;28;20179;-70
2024/02/14 09:28:45;;;;;;;1999.90;999.90;;;12.90;99.90;;;;;;4953650;28;20420;-71
2024/02/14 09:31:12;;;;;;;1999.90;999.90;;;13.00;99.90;;;;;;4953356;28;20774;-69
2024/02/14 09:33:38;;;;;;;1999.90;999.90;;;13.00;99.70;;;;;;4953635;28;20455;-70
2024/02/14 09:36:04;;;;;;;1999.90;999.90;;;13.10;99.90;;;;;;4954091;28;20411;-70
2024/02/14 09:38:34;;;;;;;1999.90;999.90;;;13.10;97.00;;;;;;4953906;28;20863;-70
2024/02/14 09:41:24;;;;;;;1999.90;999.90;;;13.20;95.50;;;;;;4953939;29;20436;-70
2024/02/14 09:43:50;;;;;;;1999.90;999.90;;;13.20;94.80;;;;;;4953800;28;20456;-69
2024/02/14 09:46:15;;;;;;;1999.90;999.90;;;13.20;94.40;;;;;;4953939;28;20439;-70
2024/02/14 09:48:44;;;;;;;1999.90;999.90;;;13.30;91.90;;;;;;4953874;28;20408;-71
2024/02/14 09:51:11;;;;;;;1999.90;999.90;;;13.30;93.30;;;;;;4953714;28;20551;-70
2024/02/14 09:53:40;;;;;;;1999.90;999.90;;;13.20;92.60;;;;;;4953891;28;20431;-70
2024/02/14 09:56:08;;;;;;;1999.90;999.90;;;13.20;93.50;;;;;;4954007;28;20435;-70
2024/02/14 09:58:34;;;;;;;1999.90;999.90;;;13.10;93.40;;;;;;4953210;28;20589;-70
2024/02/14 10:01:00;;;;;;;1999.90;999.90;;;13.20;92.30;;;;;;4954267;28;20424;-70
2024/02/14 10:03:26;;;;;;;1999.90;999.90;;;13.10;93.20;;;;;;4956794;28;20429;-70
2024/02/14 10:05:52;;;;;;;1999.90;999.90;;;13.10;94.00;;;;;;4957154;28;20213;-70
2024/02/14 10:08:18;;;;;;;1999.90;999.90;;;13.20;93.40;;;;;;4956779;28;20425;-70
2024/02/14 10:10:44;;;;;;;1999.90;999.90;;;13.20;92.20;;;;;;4956343;28;20413;-70
2024/02/14 10:13:10;;;;;;;1999.90;999.90;;;13.20;91.50;;;;;;4956509;28;20434;-70
2024/02/14 10:15:35;;;;;;;1999.90;999.90;;;13.30;91.20;;;;;;4956438;28;20215;-70
2024/02/14 10:18:03;;;;;;;1999.90;999.90;;;13.30;90.30;;;;;;4956791;28;20749;-70
2024/02/14 10:20:30;;;;;;;1999.90;999.90;;;13.20;90.50;;;;;;4956627;28;20184;-70
2024/02/14 10:23:03;;;;;;;1999.90;999.90;;;13.00;99.90;;;;;;4956520;28;20409;-70
2024/02/14 10:25:29;;;;;;;1999.90;999.90;;;13.30;90.40;;;;;;4957527;28;20412;-70
2024/02/14 10:27:55;;;;;;;1999.90;999.90;;;13.30;89.10;;;;;;4956295;28;20417;-69
2024/02/14 10:30:21;;;;;;;1999.90;999.90;;;13.30;89.10;;;;;;4955985;28;20989;-70
2024/02/14 10:32:50;;;;;;;1999.90;999.90;;;13.50;99.90;;;;;;4956280;28;20244;-69
2024/02/14 10:35:16;;;;;;;1999.90;999.90;;;13.30;91.90;;;;;;4953190;28;20469;-71
2024/02/14 10:37:43;;;;;;;1999.90;999.90;;;13.20;93.90;;;;;;4955345;28;20424;-70
2024/02/14 10:40:09;;;;;;;1999.90;999.90;;;13.20;98.70;;;;;;4954360;28;20414;-70
2024/02/14 10:42:35;;;;;;;1999.90;999.90;;;13.00;99.90;;;;;;4955004;28;20437;-70
2024/02/14 10:45:02;;;;;;;1999.90;999.90;;;12.90;99.90;;;;;;4954685;28;20219;-70
2024/02/14 10:47:33;;;;;;;1999.90;999.90;;;12.70;99.90;;;;;;4954133;28;20412;-70
2024/02/14 10:50:07;;;;;;;1999.90;999.90;;;12.60;99.90;;;;;;4953976;28;20442;-70
2024/02/14 10:52:35;;;;;;;1999.90;999.90;;;12.60;99.90;;;;;;4954658;28;20765;-69
2024/02/14 10:55:06;;;;;;;1999.90;999.90;;;12.50;99.90;;;;;;4954410;28;20473;-69
2024/02/14 10:57:32;;;;;;;1999.90;999.90;;;12.60;99.90;;;;;;4954568;28;20463;-70
2024/02/14 11:00:01;;;;;;;1999.90;999.90;;;12.60;99.90;;;;;;4953951;28;20418;-68
2024/02/14 11:02:30;;;;;;;1999.90;999.90;;;12.70;99.90;;;;;;4955177;28;20415;-70
2024/02/14 11:04:56;;;;;;;1999.90;999.90;;;12.70;99.90;;;;;;4953032;28;20440;-70
2024/02/14 11:07:24;;;;;;;1999.90;999.90;;;12.80;99.90;;;;;;4954870;28;20834;-70
2024/02/14 11:10:08;;;;;;;1999.90;999.90;;;12.90;99.90;;;;;;4954926;28;20421;-69
2024/02/14 11:12:39;;;;;;;1999.90;999.90;;;13.00;99.90;;;;;;4954212;28;20928;-68
2024/02/14 11:15:25;;;;;;;1999.90;999.90;;;13.00;99.90;;;;;;4954508;28;20491;-69
2024/02/14 11:17:52;;;;;;;1999.90;999.90;;;13.70;99.90;;;;;;4954701;28;20949;-69
2024/02/14 11:20:20;;;;;;;1999.90;999.90;;;13.20;99.90;;;;;;4954771;28;20973;-69
2024/02/14 11:23:04;;;;;;;1999.90;999.90;;;13.10;99.90;;;;;;4954756;28;20413;-69
2024/02/14 11:25:31;;;;;;;1999.90;999.90;;;13.20;99.90;;;;;;4955229;28;20446;-68
2024/02/14 11:27:58;;;;;;;1999.90;999.90;;;13.20;99.90;;;;;;4955147;28;20435;-68
2024/02/14 11:30:36;;;;;;;1999.90;999.90;;;13.10;99.90;;;;;;4954529;28;20423;-69
2024/02/14 11:33:16;;;;;;;1999.90;999.90;;;13.10;99.90;;;;;;4955054;28;20440;-69
2024/02/14 11:35:42;;;;;;;1999.90;999.90;;;13.20;99.90;;;;;;4954800;28;20464;-68
2024/02/14 11:38:09;;;;;;;1999.90;999.90;;;13.20;99.90;;;;;;4954952;28;20410;-70
2024/02/14 11:40:41;;;;;;;1999.90;999.90;;;13.20;99.90;;;;;;4954694;28;20412;-70
2024/02/14 11:43:14;;;;;;;1999.90;999.90;;;13.30;99.90;;;;;;4954588;28;20449;-70
2024/02/14 11:45:45;;;;;;;1999.90;999.90;;;13.30;99.90;;;;;;4954886;28;20497;-69
2024/02/14 11:48:14;;;;;;;1999.90;999.90;;;13.30;99.90;;;;;;4954705;28;20761;-70
2024/02/14 11:50:41;;;;;;;1999.90;999.90;;;13.40;99.90;;;;;;4954029;28;20448;-70
2024/02/14 11:53:09;;;;;;;1999.90;999.90;;;13.50;99.90;;;;;;4954852;28;20435;-69
2024/02/14 11:55:37;;;;;;;1999.90;999.90;;;13.50;99.90;;;;;;4954550;28;20465;-69